sensor_id;sensor_type;location;lat;lon;timestamp;temperature;humidity
5647;DHT22;2845;48.626;9.362;2023-04-24T00:00:37;11.60;99.90
5647;DHT22;2845;48.626;9.362;2023-04-24T00:03:13;11.00;99.90
5647;DHT22;2845;48.626;9.362;2023-04-24T00:05:47;11.60;99.90
5647;DHT22;2845;48.626;9.362;2023-04-24T00:08:21;11.60;99.90
5647;DHT22;2845;48.626;9.362;2023-04-24T00:10:56;11.60;99.90
5647;DHT22;2845;48.626;9.362;2023-04-24T00:13:30;12.90;99.90
5647;DHT22;2845;48.626;9.362;2023-04-24T00:16:06;11.60;99.90
5647;DHT22;2845;48.626;9.362;2023-04-24T00:18:40;12.60;99.90
5647;DHT22;2845;48.626;9.362;2023-04-24T00:21:14;11.50;99.90
5647;DHT22;2845;48.626;9.362;2023-04-24T00:23:48;11.50;99.90
5647;DHT22;2845;48.626;9.362;2023-04-24T00:26:22;11.40;99.90
5647;DHT22;2845;48.626;9.362;2023-04-24T00:28:56;11.40;99.90
5647;DHT22;2845;48.626;9.362;2023-04-24T00:31:32;11.40;99.90
5647;DHT22;2845;48.626;9.362;2023-04-24T00:34:07;11.40;99.90
5647;DHT22;2845;48.626;9.362;2023-04-24T00:36:42;11.50;99.90
5647;DHT22;2845;48.626;9.362;2023-04-24T00:39:17;11.60;99.90
5647;DHT22;2845;48.626;9.362;2023-04-24T00:41:51;11.60;99.90
5647;DHT22;2845;48.626;9.362;2023-04-24T00:44:26;11.70;99.90
5647;DHT22;2845;48.626;9.362;2023-04-24T00:52:58;11.80;99.90
5647;DHT22;2845;48.626;9.362;2023-04-24T00:55:46;11.80;99.90
5647;DHT22;2845;48.626;9.362;2023-04-24T00:58:20;11.80;99.90
5647;DHT22;2845;48.626;9.362;2023-04-24T01:00:54;11.70;99.90
5647;DHT22;2845;48.626;9.362;2023-04-24T01:03:31;11.70;99.90
5647;DHT22;2845;48.626;9.362;2023-04-24T01:06:05;11.80;99.90
5647;DHT22;2845;48.626;9.362;2023-04-24T01:08:42;11.70;99.90
5647;DHT22;2845;48.626;9.362;2023-04-24T01:11:16;11.70;99.90
5647;DHT22;2845;48.626;9.362;2023-04-24T01:13:51;11.70;99.90
5647;DHT22;2845;48.626;9.362;2023-04-24T01:16:25;11.70;99.90
5647;DHT22;2845;48.626;9.362;2023-04-24T01:18:59;11.70;99.90
5647;DHT22;2845;48.626;9.362;2023-04-24T01:21:35;11.70;99.90
5647;DHT22;2845;48.626;9.362;2023-04-24T01:24:12;11.70;99.90
5647;DHT22;2845;48.626;9.362;2023-04-24T01:26:46;11.70;99.90
5647;DHT22;2845;48.626;9.362;2023-04-24T01:29:20;11.70;99.90
5647;DHT22;2845;48.626;9.362;2023-04-24T01:31:55;15.00;99.90
5647;DHT22;2845;48.626;9.362;2023-04-24T01:34:31;11.70;99.90
5647;DHT22;2845;48.626;9.362;2023-04-24T01:37:06;14.30;99.90
5647;DHT22;2845;48.626;9.362;2023-04-24T01:39:41;11.70;99.90
5647;DHT22;2845;48.626;9.362;2023-04-24T01:42:16;11.60;99.90
5647;DHT22;2845;48.626;9.362;2023-04-24T01:44:50;11.60;99.90
5647;DHT22;2845;48.626;9.362;2023-04-24T01:47:25;11.50;99.90
5647;DHT22;2845;48.626;9.362;2023-04-24T01:49:59;11.40;99.90
5647;DHT22;2845;48.626;9.362;2023-04-24T01:52:33;11.40;99.90
5647;DHT22;2845;48.626;9.362;2023-04-24T01:55:10;11.40;99.90
5647;DHT22;2845;48.626;9.362;2023-04-24T01:57:44;11.40;99.90
5647;DHT22;2845;48.626;9.362;2023-04-24T02:00:18;11.40;99.90
5647;DHT22;2845;48.626;9.362;2023-04-24T02:02:52;11.40;99.90
5647;DHT22;2845;48.626;9.362;2023-04-24T02:05:27;12.90;99.90
5647;DHT22;2845;48.626;9.362;2023-04-24T02:08:01;11.40;99.90
5647;DHT22;2845;48.626;9.362;2023-04-24T02:10:36;11.40;99.90
5647;DHT22;2845;48.626;9.362;2023-04-24T02:13:10;11.40;99.90
5647;DHT22;2845;48.626;9.362;2023-04-24T02:15:44;11.50;99.90
5647;DHT22;2845;48.626;9.362;2023-04-24T02:18:18;11.50;99.90
5647;DHT22;2845;48.626;9.362;2023-04-24T02:20:52;11.60;99.90
5647;DHT22;2845;48.626;9.362;2023-04-24T02:23:26;11.60;99.90
5647;DHT22;2845;48.626;9.362;2023-04-24T02:26:01;11.60;99.90
5647;DHT22;2845;48.626;9.362;2023-04-24T02:28:35;11.60;99.90
5647;DHT22;2845;48.626;9.362;2023-04-24T02:31:09;11.60;99.90
5647;DHT22;2845;48.626;9.362;2023-04-24T02:33:43;11.60;99.90
5647;DHT22;2845;48.626;9.362;2023-04-24T02:36:17;11.60;99.90
5647;DHT22;2845;48.626;9.362;2023-04-24T02:38:51;11.60;99.90
5647;DHT22;2845;48.626;9.362;2023-04-24T02:41:27;11.50;99.90
5647;DHT22;2845;48.626;9.362;2023-04-24T02:44:04;11.40;99.90
5647;DHT22;2845;48.626;9.362;2023-04-24T02:46:38;11.30;99.90
5647;DHT22;2845;48.626;9.362;2023-04-24T02:49:13;11.20;99.90
5647;DHT22;2845;48.626;9.362;2023-04-24T02:51:47;11.20;99.90
5647;DHT22;2845;48.626;9.362;2023-04-24T02:54:21;11.10;99.90
5647;DHT22;2845;48.626;9.362;2023-04-24T02:56:57;11.10;99.90
5647;DHT22;2845;48.626;9.362;2023-04-24T03:03:10;11.10;99.90
5647;DHT22;2845;48.626;9.362;2023-04-24T03:05:44;11.20;99.90
5647;DHT22;2845;48.626;9.362;2023-04-24T03:08:18;11.20;99.90
5647;DHT22;2845;48.626;9.362;2023-04-24T03:10:52;11.20;99.90
5647;DHT22;2845;48.626;9.362;2023-04-24T03:13:27;11.30;99.90
5647;DHT22;2845;48.626;9.362;2023-04-24T03:16:01;11.30;99.90
5647;DHT22;2845;48.626;9.362;2023-04-24T03:18:36;11.30;99.90
5647;DHT22;2845;48.626;9.362;2023-04-24T03:21:10;11.20;99.90
5647;DHT22;2845;48.626;9.362;2023-04-24T03:23:44;11.20;99.90
5647;DHT22;2845;48.626;9.362;2023-04-24T03:26:18;11.20;99.90
5647;DHT22;2845;48.626;9.362;2023-04-24T03:28:53;11.30;99.90
5647;DHT22;2845;48.626;9.362;2023-04-24T03:31:27;11.30;99.90
5647;DHT22;2845;48.626;9.362;2023-04-24T03:34:01;11.20;99.90
5647;DHT22;2845;48.626;9.362;2023-04-24T03:36:35;9.60;99.90
5647;DHT22;2845;48.626;9.362;2023-04-24T03:39:15;11.10;99.90
5647;DHT22;2845;48.626;9.362;2023-04-24T03:41:49;11.10;99.90
5647;DHT22;2845;48.626;9.362;2023-04-24T03:44:24;11.00;99.90
5647;DHT22;2845;48.626;9.362;2023-04-24T03:46:58;10.90;99.90
5647;DHT22;2845;48.626;9.362;2023-04-24T03:49:32;10.90;99.90
5647;DHT22;2845;48.626;9.362;2023-04-24T03:52:06;10.90;99.90
5647;DHT22;2845;48.626;9.362;2023-04-24T03:55:05;10.90;99.90
5647;DHT22;2845;48.626;9.362;2023-04-24T03:57:40;11.00;99.90
5647;DHT22;2845;48.626;9.362;2023-04-24T04:00:15;10.90;99.90
5647;DHT22;2845;48.626;9.362;2023-04-24T04:02:51;10.90;99.90
5647;DHT22;2845;48.626;9.362;2023-04-24T04:05:25;10.80;99.90
5647;DHT22;2845;48.626;9.362;2023-04-24T04:07:59;10.70;99.90
5647;DHT22;2845;48.626;9.362;2023-04-24T04:10:33;10.60;99.90
5647;DHT22;2845;48.626;9.362;2023-04-24T04:13:08;10.50;99.90
5647;DHT22;2845;48.626;9.362;2023-04-24T04:15:43;10.50;99.90
5647;DHT22;2845;48.626;9.362;2023-04-24T04:18:18;10.50;99.90
5647;DHT22;2845;48.626;9.362;2023-04-24T04:20:51;10.40;99.90
5647;DHT22;2845;48.626;9.362;2023-04-24T04:23:25;10.30;99.90
5647;DHT22;2845;48.626;9.362;2023-04-24T04:26:00;10.30;99.90
5647;DHT22;2845;48.626;9.362;2023-04-24T04:28:34;10.30;99.90
5647;DHT22;2845;48.626;9.362;2023-04-24T04:31:11;10.40;99.90
5647;DHT22;2845;48.626;9.362;2023-04-24T04:33:45;10.40;99.90
5647;DHT22;2845;48.626;9.362;2023-04-24T04:36:19;10.50;99.90
5647;DHT22;2845;48.626;9.362;2023-04-24T04:38:53;13.80;99.90
5647;DHT22;2845;48.626;9.362;2023-04-24T04:41:27;11.60;99.90
5647;DHT22;2845;48.626;9.362;2023-04-24T04:44:01;10.60;99.90
5647;DHT22;2845;48.626;9.362;2023-04-24T04:46:38;10.60;99.90
5647;DHT22;2845;48.626;9.362;2023-04-24T04:49:12;10.60;99.90
5647;DHT22;2845;48.626;9.362;2023-04-24T04:51:49;8.90;99.90
5647;DHT22;2845;48.626;9.362;2023-04-24T04:54:24;10.70;99.90
5647;DHT22;2845;48.626;9.362;2023-04-24T04:56:58;10.80;99.90
5647;DHT22;2845;48.626;9.362;2023-04-24T04:59:35;10.80;99.90
5647;DHT22;2845;48.626;9.362;2023-04-24T05:02:11;10.90;99.90
5647;DHT22;2845;48.626;9.362;2023-04-24T05:04:45;10.90;99.90
5647;DHT22;2845;48.626;9.362;2023-04-24T05:07:19;10.90;99.90
5647;DHT22;2845;48.626;9.362;2023-04-24T05:09:53;10.90;99.90
5647;DHT22;2845;48.626;9.362;2023-04-24T05:12:27;10.90;99.90
5647;DHT22;2845;48.626;9.362;2023-04-24T05:15:01;11.00;99.90
5647;DHT22;2845;48.626;9.362;2023-04-24T05:17:37;12.50;99.90
5647;DHT22;2845;48.626;9.362;2023-04-24T05:20:12;10.60;99.90
5647;DHT22;2845;48.626;9.362;2023-04-24T05:22:46;10.30;99.90
5647;DHT22;2845;48.626;9.362;2023-04-24T05:25:20;10.10;99.90
5647;DHT22;2845;48.626;9.362;2023-04-24T05:27:54;9.90;99.90
5647;DHT22;2845;48.626;9.362;2023-04-24T05:30:28;9.80;99.90
5647;DHT22;2845;48.626;9.362;2023-04-24T05:33:04;9.70;99.90
5647;DHT22;2845;48.626;9.362;2023-04-24T05:35:38;9.70;99.90
5647;DHT22;2845;48.626;9.362;2023-04-24T05:38:18;9.70;99.90
5647;DHT22;2845;48.626;9.362;2023-04-24T05:40:52;9.60;99.90
5647;DHT22;2845;48.626;9.362;2023-04-24T05:43:26;9.60;99.90
5647;DHT22;2845;48.626;9.362;2023-04-24T05:46:00;9.60;99.90
5647;DHT22;2845;48.626;9.362;2023-04-24T05:48:35;9.50;99.90
5647;DHT22;2845;48.626;9.362;2023-04-24T05:51:09;9.50;99.90
5647;DHT22;2845;48.626;9.362;2023-04-24T05:53:43;9.60;99.90
5647;DHT22;2845;48.626;9.362;2023-04-24T05:56:17;9.60;99.90
5647;DHT22;2845;48.626;9.362;2023-04-24T05:58:52;9.60;99.90
5647;DHT22;2845;48.626;9.362;2023-04-24T06:01:26;9.70;99.90
5647;DHT22;2845;48.626;9.362;2023-04-24T06:04:01;9.70;99.90
5647;DHT22;2845;48.626;9.362;2023-04-24T06:06:36;9.70;99.90
5647;DHT22;2845;48.626;9.362;2023-04-24T06:09:10;9.80;99.90
5647;DHT22;2845;48.626;9.362;2023-04-24T06:11:44;9.80;99.90
5647;DHT22;2845;48.626;9.362;2023-04-24T06:14:18;9.90;99.90
5647;DHT22;2845;48.626;9.362;2023-04-24T06:16:52;10.00;99.90
5647;DHT22;2845;48.626;9.362;2023-04-24T06:19:27;12.50;99.90
5647;DHT22;2845;48.626;9.362;2023-04-24T06:22:01;10.10;99.90
5647;DHT22;2845;48.626;9.362;2023-04-24T06:24:35;10.10;99.90
5647;DHT22;2845;48.626;9.362;2023-04-24T06:27:09;10.00;99.90
5647;DHT22;2845;48.626;9.362;2023-04-24T06:29:45;10.00;99.90
5647;DHT22;2845;48.626;9.362;2023-04-24T06:32:25;9.90;99.90
5647;DHT22;2845;48.626;9.362;2023-04-24T06:35:01;12.80;99.90
5647;DHT22;2845;48.626;9.362;2023-04-24T06:37:35;9.90;99.90
5647;DHT22;2845;48.626;9.362;2023-04-24T06:40:10;10.00;99.90
5647;DHT22;2845;48.626;9.362;2023-04-24T06:42:44;10.10;99.90
5647;DHT22;2845;48.626;9.362;2023-04-24T06:45:18;10.40;99.90
5647;DHT22;2845;48.626;9.362;2023-04-24T06:47:59;10.60;99.90
5647;DHT22;2845;48.626;9.362;2023-04-24T06:50:35;10.70;99.90
5647;DHT22;2845;48.626;9.362;2023-04-24T06:53:12;10.90;99.90
5647;DHT22;2845;48.626;9.362;2023-04-24T06:55:46;10.90;99.90
5647;DHT22;2845;48.626;9.362;2023-04-24T06:58:21;11.00;99.90
5647;DHT22;2845;48.626;9.362;2023-04-24T07:00:55;12.80;99.90
5647;DHT22;2845;48.626;9.362;2023-04-24T07:03:29;11.30;99.90
5647;DHT22;2845;48.626;9.362;2023-04-24T07:06:05;11.40;99.90
5647;DHT22;2845;48.626;9.362;2023-04-24T07:08:40;11.50;99.90
5647;DHT22;2845;48.626;9.362;2023-04-24T07:11:15;11.60;99.90
5647;DHT22;2845;48.626;9.362;2023-04-24T07:13:49;11.70;99.90
5647;DHT22;2845;48.626;9.362;2023-04-24T07:16:23;11.80;99.90
5647;DHT22;2845;48.626;9.362;2023-04-24T07:18:58;12.00;99.90
5647;DHT22;2845;48.626;9.362;2023-04-24T07:21:34;12.20;99.90
5647;DHT22;2845;48.626;9.362;2023-04-24T07:24:08;12.50;99.90
5647;DHT22;2845;48.626;9.362;2023-04-24T07:26:43;13.90;99.90
5647;DHT22;2845;48.626;9.362;2023-04-24T07:29:19;13.00;99.90
5647;DHT22;2845;48.626;9.362;2023-04-24T07:31:53;13.00;99.90
5647;DHT22;2845;48.626;9.362;2023-04-24T07:34:29;12.90;99.90
5647;DHT22;2845;48.626;9.362;2023-04-24T07:37:04;14.90;99.90
5647;DHT22;2845;48.626;9.362;2023-04-24T07:39:38;12.60;99.90
5647;DHT22;2845;48.626;9.362;2023-04-24T07:42:13;12.40;99.90
5647;DHT22;2845;48.626;9.362;2023-04-24T07:44:47;12.30;99.90
5647;DHT22;2845;48.626;9.362;2023-04-24T07:47:21;12.30;99.90
5647;DHT22;2845;48.626;9.362;2023-04-24T07:49:55;12.20;99.90
5647;DHT22;2845;48.626;9.362;2023-04-24T07:52:31;12.10;99.90
5647;DHT22;2845;48.626;9.362;2023-04-24T07:55:05;11.80;99.90
5647;DHT22;2845;48.626;9.362;2023-04-24T07:57:40;11.40;99.90
5647;DHT22;2845;48.626;9.362;2023-04-24T08:00:14;11.20;99.90
5647;DHT22;2845;48.626;9.362;2023-04-24T08:02:49;11.40;99.90
5647;DHT22;2845;48.626;9.362;2023-04-24T08:05:29;13.00;99.90
5647;DHT22;2845;48.626;9.362;2023-04-24T08:08:21;11.60;99.90
5647;DHT22;2845;48.626;9.362;2023-04-24T08:11:01;11.70;99.90
5647;DHT22;2845;48.626;9.362;2023-04-24T08:13:35;11.70;99.90
5647;DHT22;2845;48.626;9.362;2023-04-24T08:16:09;11.70;99.90
5647;DHT22;2845;48.626;9.362;2023-04-24T08:18:43;11.80;99.90
5647;DHT22;2845;48.626;9.362;2023-04-24T08:21:17;12.00;99.90
5647;DHT22;2845;48.626;9.362;2023-04-24T08:23:52;12.20;99.90
5647;DHT22;2845;48.626;9.362;2023-04-24T08:26:26;13.90;99.90
5647;DHT22;2845;48.626;9.362;2023-04-24T08:29:00;12.60;98.80
5647;DHT22;2845;48.626;9.362;2023-04-24T08:31:34;14.30;98.60
5647;DHT22;2845;48.626;9.362;2023-04-24T08:34:09;13.30;97.20
5647;DHT22;2845;48.626;9.362;2023-04-24T08:36:43;12.80;97.20
5647;DHT22;2845;48.626;9.362;2023-04-24T08:39:20;12.80;96.70
5647;DHT22;2845;48.626;9.362;2023-04-24T08:41:55;14.90;96.70
5647;DHT22;2845;48.626;9.362;2023-04-24T08:44:29;13.40;96.10
5647;DHT22;2845;48.626;9.362;2023-04-24T08:47:05;12.60;95.50
5647;DHT22;2845;48.626;9.362;2023-04-24T08:49:40;12.80;96.00
5647;DHT22;2845;48.626;9.362;2023-04-24T08:52:18;13.30;95.40
5647;DHT22;2845;48.626;9.362;2023-04-24T08:54:55;13.40;94.60
5647;DHT22;2845;48.626;9.362;2023-04-24T08:57:31;13.50;94.10
5647;DHT22;2845;48.626;9.362;2023-04-24T09:00:07;13.50;94.00
5647;DHT22;2845;48.626;9.362;2023-04-24T09:02:43;13.50;93.80
5647;DHT22;2845;48.626;9.362;2023-04-24T09:05:21;13.60;93.70
5647;DHT22;2845;48.626;9.362;2023-04-24T09:07:59;13.70;93.10
5647;DHT22;2845;48.626;9.362;2023-04-24T09:10:36;14.00;92.80
5647;DHT22;2845;48.626;9.362;2023-04-24T09:13:11;14.40;92.70
5647;DHT22;2845;48.626;9.362;2023-04-24T09:15:51;17.00;92.70
5647;DHT22;2845;48.626;9.362;2023-04-24T09:18:26;16.30;92.20
5647;DHT22;2845;48.626;9.362;2023-04-24T09:21:01;14.80;91.50
5647;DHT22;2845;48.626;9.362;2023-04-24T09:23:36;14.70;91.30
5647;DHT22;2845;48.626;9.362;2023-04-24T09:26:12;14.30;91.60
5647;DHT22;2845;48.626;9.362;2023-04-24T09:28:46;14.60;92.10
5647;DHT22;2845;48.626;9.362;2023-04-24T09:31:20;13.70;92.30
5647;DHT22;2845;48.626;9.362;2023-04-24T09:33:57;14.80;92.00
5647;DHT22;2845;48.626;9.362;2023-04-24T09:36:36;16.20;92.10
5647;DHT22;2845;48.626;9.362;2023-04-24T09:39:13;14.40;91.20
5647;DHT22;2845;48.626;9.362;2023-04-24T09:41:52;14.50;91.30
5647;DHT22;2845;48.626;9.362;2023-04-24T09:44:28;16.60;91.30
5647;DHT22;2845;48.626;9.362;2023-04-24T09:47:02;14.50;90.70
5647;DHT22;2845;48.626;9.362;2023-04-24T09:49:36;16.70;90.90
5647;DHT22;2845;48.626;9.362;2023-04-24T09:52:11;15.00;90.30
5647;DHT22;2845;48.626;9.362;2023-04-24T09:54:52;14.30;90.20
5647;DHT22;2845;48.626;9.362;2023-04-24T09:57:28;15.40;90.60
5647;DHT22;2845;48.626;9.362;2023-04-24T10:00:03;14.00;90.40
5647;DHT22;2845;48.626;9.362;2023-04-24T10:02:39;14.00;90.20
5647;DHT22;2845;48.626;9.362;2023-04-24T10:05:15;14.20;90.30
5647;DHT22;2845;48.626;9.362;2023-04-24T10:07:49;14.40;89.60
5647;DHT22;2845;48.626;9.362;2023-04-24T10:10:23;14.30;88.60
5647;DHT22;2845;48.626;9.362;2023-04-24T10:12:59;14.10;87.50
5647;DHT22;2845;48.626;9.362;2023-04-24T10:15:34;13.90;88.10
5647;DHT22;2845;48.626;9.362;2023-04-24T10:18:09;14.10;88.80
5647;DHT22;2845;48.626;9.362;2023-04-24T10:20:43;15.20;89.60
5647;DHT22;2845;48.626;9.362;2023-04-24T10:23:19;14.10;89.30
5647;DHT22;2845;48.626;9.362;2023-04-24T10:25:53;17.50;90.40
5647;DHT22;2845;48.626;9.362;2023-04-24T10:28:30;14.60;88.70
5647;DHT22;2845;48.626;9.362;2023-04-24T10:31:06;15.10;86.00
5647;DHT22;2845;48.626;9.362;2023-04-24T10:33:41;15.50;86.50
5647;DHT22;2845;48.626;9.362;2023-04-24T10:36:16;15.50;86.40
5647;DHT22;2845;48.626;9.362;2023-04-24T10:38:50;15.10;86.40
5647;DHT22;2845;48.626;9.362;2023-04-24T10:41:26;16.20;87.10
5647;DHT22;2845;48.626;9.362;2023-04-24T10:44:09;15.60;86.00
5647;DHT22;2845;48.626;9.362;2023-04-24T10:46:45;15.90;84.70
5647;DHT22;2845;48.626;9.362;2023-04-24T10:49:28;14.50;86.40
5647;DHT22;2845;48.626;9.362;2023-04-24T10:52:03;14.50;84.40
5647;DHT22;2845;48.626;9.362;2023-04-24T10:54:42;14.70;84.60
5647;DHT22;2845;48.626;9.362;2023-04-24T10:57:28;15.00;84.50
5647;DHT22;2845;48.626;9.362;2023-04-24T11:00:14;15.10;82.90
5647;DHT22;2845;48.626;9.362;2023-04-24T11:02:52;15.10;83.90
5647;DHT22;2845;48.626;9.362;2023-04-24T11:05:57;15.10;83.70
5647;DHT22;2845;48.626;9.362;2023-04-24T11:08:37;15.20;83.40
5647;DHT22;2845;48.626;9.362;2023-04-24T11:11:14;15.60;83.40
5647;DHT22;2845;48.626;9.362;2023-04-24T11:14:09;15.40;83.30
5647;DHT22;2845;48.626;9.362;2023-04-24T11:16:51;15.60;82.60
5647;DHT22;2845;48.626;9.362;2023-04-24T11:19:26;15.70;82.30
5647;DHT22;2845;48.626;9.362;2023-04-24T11:22:02;15.30;83.20
5647;DHT22;2845;48.626;9.362;2023-04-24T11:24:39;17.40;84.10
5647;DHT22;2845;48.626;9.362;2023-04-24T11:27:16;14.70;83.50
5647;DHT22;2845;48.626;9.362;2023-04-24T11:30:00;14.70;84.60
5647;DHT22;2845;48.626;9.362;2023-04-24T11:32:38;14.90;83.00
5647;DHT22;2845;48.626;9.362;2023-04-24T11:35:15;15.10;83.90
5647;DHT22;2845;48.626;9.362;2023-04-24T11:37:51;15.10;83.30
5647;DHT22;2845;48.626;9.362;2023-04-24T11:40:29;14.90;83.30
5647;DHT22;2845;48.626;9.362;2023-04-24T11:43:04;11.50;81.90
5647;DHT22;2845;48.626;9.362;2023-04-24T11:45:48;14.90;83.70
5647;DHT22;2845;48.626;9.362;2023-04-24T11:48:23;14.70;84.40
5647;DHT22;2845;48.626;9.362;2023-04-24T11:50:58;14.40;84.90
5647;DHT22;2845;48.626;9.362;2023-04-24T11:53:36;13.30;85.30
5647;DHT22;2845;48.626;9.362;2023-04-24T11:56:10;14.00;84.90
5647;DHT22;2845;48.626;9.362;2023-04-24T11:58:45;16.00;86.80
5647;DHT22;2845;48.626;9.362;2023-04-24T12:01:19;14.10;85.30
5647;DHT22;2845;48.626;9.362;2023-04-24T12:03:59;13.90;85.60
5647;DHT22;2845;48.626;9.362;2023-04-24T12:06:34;15.40;86.60
5647;DHT22;2845;48.626;9.362;2023-04-24T12:09:08;14.60;86.60
5647;DHT22;2845;48.626;9.362;2023-04-24T12:11:53;13.80;85.80
5647;DHT22;2845;48.626;9.362;2023-04-24T12:14:29;13.70;85.20
5647;DHT22;2845;48.626;9.362;2023-04-24T12:17:03;12.50;84.30
5647;DHT22;2845;48.626;9.362;2023-04-24T12:19:45;17.20;86.40
5647;DHT22;2845;48.626;9.362;2023-04-24T12:22:20;14.50;84.70
5647;DHT22;2845;48.626;9.362;2023-04-24T12:25:02;14.70;84.70
5647;DHT22;2845;48.626;9.362;2023-04-24T12:27:38;14.50;84.30
5647;DHT22;2845;48.626;9.362;2023-04-24T12:30:13;14.60;84.20
5647;DHT22;2845;48.626;9.362;2023-04-24T12:32:49;14.70;83.60
5647;DHT22;2845;48.626;9.362;2023-04-24T12:35:27;14.60;83.80
5647;DHT22;2845;48.626;9.362;2023-04-24T12:38:06;14.40;84.00
5647;DHT22;2845;48.626;9.362;2023-04-24T12:40:41;14.40;84.10
5647;DHT22;2845;48.626;9.362;2023-04-24T12:43:16;14.40;84.20
5647;DHT22;2845;48.626;9.362;2023-04-24T12:45:51;14.60;84.70
5647;DHT22;2845;48.626;9.362;2023-04-24T12:48:25;13.90;84.70
5647;DHT22;2845;48.626;9.362;2023-04-24T12:51:01;14.10;84.70
5647;DHT22;2845;48.626;9.362;2023-04-24T12:53:35;14.30;84.00
5647;DHT22;2845;48.626;9.362;2023-04-24T12:56:09;14.40;84.10
5647;DHT22;2845;48.626;9.362;2023-04-24T12:58:43;14.30;83.20
5647;DHT22;2845;48.626;9.362;2023-04-24T13:01:17;14.30;83.00
5647;DHT22;2845;48.626;9.362;2023-04-24T13:03:51;15.20;83.40
5647;DHT22;2845;48.626;9.362;2023-04-24T13:09:02;14.60;82.60
5647;DHT22;2845;48.626;9.362;2023-04-24T13:14:11;14.70;82.80
5647;DHT22;2845;48.626;9.362;2023-04-24T13:16:45;14.60;83.10
5647;DHT22;2845;48.626;9.362;2023-04-24T13:19:19;14.50;83.60
5647;DHT22;2845;48.626;9.362;2023-04-24T13:21:56;15.00;83.30
5647;DHT22;2845;48.626;9.362;2023-04-24T13:24:32;15.00;83.30
5647;DHT22;2845;48.626;9.362;2023-04-24T13:27:06;15.70;81.90
5647;DHT22;2845;48.626;9.362;2023-04-24T13:29:40;16.10;81.20
5647;DHT22;2845;48.626;9.362;2023-04-24T13:32:15;16.50;79.70
5647;DHT22;2845;48.626;9.362;2023-04-24T13:34:49;16.80;80.50
5647;DHT22;2845;48.626;9.362;2023-04-24T13:39:59;16.50;79.40
5647;DHT22;2845;48.626;9.362;2023-04-24T13:42:33;16.20;79.90
5647;DHT22;2845;48.626;9.362;2023-04-24T13:45:09;16.00;79.80
5647;DHT22;2845;48.626;9.362;2023-04-24T13:47:56;15.80;79.40
5647;DHT22;2845;48.626;9.362;2023-04-24T13:50:30;16.90;81.50
5647;DHT22;2845;48.626;9.362;2023-04-24T13:55:40;15.30;81.30
5647;DHT22;2845;48.626;9.362;2023-04-24T13:58:14;15.10;81.30
5647;DHT22;2845;48.626;9.362;2023-04-24T14:00:49;18.10;83.20
5647;DHT22;2845;48.626;9.362;2023-04-24T14:03:23;16.90;83.40
5647;DHT22;2845;48.626;9.362;2023-04-24T14:05:57;14.70;82.80
5647;DHT22;2845;48.626;9.362;2023-04-24T14:08:33;14.40;82.20
5647;DHT22;2845;48.626;9.362;2023-04-24T14:11:07;14.10;82.20
5647;DHT22;2845;48.626;9.362;2023-04-24T14:13:41;14.00;82.80
5647;DHT22;2845;48.626;9.362;2023-04-24T14:16:16;13.70;83.00
5647;DHT22;2845;48.626;9.362;2023-04-24T14:18:50;13.70;84.10
5647;DHT22;2845;48.626;9.362;2023-04-24T14:21:24;13.80;83.40
5647;DHT22;2845;48.626;9.362;2023-04-24T14:24:00;17.20;84.90
5647;DHT22;2845;48.626;9.362;2023-04-24T14:26:34;14.30;83.60
5647;DHT22;2845;48.626;9.362;2023-04-24T14:29:08;18.40;85.40
5647;DHT22;2845;48.626;9.362;2023-04-24T14:31:46;15.30;83.00
5647;DHT22;2845;48.626;9.362;2023-04-24T14:34:21;17.10;84.30
5647;DHT22;2845;48.626;9.362;2023-04-24T14:36:55;14.20;82.90
5647;DHT22;2845;48.626;9.362;2023-04-24T14:39:33;16.60;85.20
5647;DHT22;2845;48.626;9.362;2023-04-24T14:42:07;14.70;84.50
5647;DHT22;2845;48.626;9.362;2023-04-24T14:44:41;14.40;84.80
5647;DHT22;2845;48.626;9.362;2023-04-24T14:47:15;13.70;84.20
5647;DHT22;2845;48.626;9.362;2023-04-24T14:49:53;13.50;84.00
5647;DHT22;2845;48.626;9.362;2023-04-24T14:52:28;13.70;84.50
5647;DHT22;2845;48.626;9.362;2023-04-24T14:55:04;17.10;84.90
5647;DHT22;2845;48.626;9.362;2023-04-24T14:57:39;13.50;83.80
5647;DHT22;2845;48.626;9.362;2023-04-24T15:00:14;13.80;83.40
5647;DHT22;2845;48.626;9.362;2023-04-24T15:02:49;13.90;83.10
5647;DHT22;2845;48.626;9.362;2023-04-24T15:05:24;14.10;81.80
5647;DHT22;2845;48.626;9.362;2023-04-24T15:08:00;14.30;82.40
5647;DHT22;2845;48.626;9.362;2023-04-24T15:10:36;14.60;82.00
5647;DHT22;2845;48.626;9.362;2023-04-24T15:13:10;16.90;82.90
5647;DHT22;2845;48.626;9.362;2023-04-24T15:15:46;16.00;82.30
5647;DHT22;2845;48.626;9.362;2023-04-24T15:18:20;15.70;82.10
5647;DHT22;2845;48.626;9.362;2023-04-24T15:20:55;16.70;82.90
5647;DHT22;2845;48.626;9.362;2023-04-24T15:23:29;14.50;81.30
5647;DHT22;2845;48.626;9.362;2023-04-24T15:26:05;17.20;83.10
5647;DHT22;2845;48.626;9.362;2023-04-24T15:28:39;14.30;82.10
5647;DHT22;2845;48.626;9.362;2023-04-24T15:31:14;14.20;82.20
5647;DHT22;2845;48.626;9.362;2023-04-24T15:33:48;17.00;83.80
5647;DHT22;2845;48.626;9.362;2023-04-24T15:36:23;14.10;82.90
5647;DHT22;2845;48.626;9.362;2023-04-24T15:39:01;15.40;83.80
5647;DHT22;2845;48.626;9.362;2023-04-24T15:41:39;14.00;83.30
5647;DHT22;2845;48.626;9.362;2023-04-24T15:44:13;13.90;83.30
5647;DHT22;2845;48.626;9.362;2023-04-24T15:46:47;13.80;82.90
5647;DHT22;2845;48.626;9.362;2023-04-24T15:49:23;13.80;82.80
5647;DHT22;2845;48.626;9.362;2023-04-24T15:51:58;13.70;83.00
5647;DHT22;2845;48.626;9.362;2023-04-24T15:54:35;13.60;82.90
5647;DHT22;2845;48.626;9.362;2023-04-24T15:57:12;13.60;82.90
5647;DHT22;2845;48.626;9.362;2023-04-24T15:59:47;13.60;82.70
5647;DHT22;2845;48.626;9.362;2023-04-24T16:02:22;13.50;83.00
5647;DHT22;2845;48.626;9.362;2023-04-24T16:04:56;13.50;83.40
5647;DHT22;2845;48.626;9.362;2023-04-24T16:07:34;13.60;83.60
5647;DHT22;2845;48.626;9.362;2023-04-24T16:10:09;13.70;83.00
5647;DHT22;2845;48.626;9.362;2023-04-24T16:12:46;13.80;83.00
5647;DHT22;2845;48.626;9.362;2023-04-24T16:15:20;13.90;83.40
5647;DHT22;2845;48.626;9.362;2023-04-24T16:17:54;16.80;84.70
5647;DHT22;2845;48.626;9.362;2023-04-24T16:20:30;13.90;82.80
5647;DHT22;2845;48.626;9.362;2023-04-24T16:23:07;12.50;82.10
5647;DHT22;2845;48.626;9.362;2023-04-24T16:25:41;13.80;82.00
5647;DHT22;2845;48.626;9.362;2023-04-24T16:28:17;13.70;82.70
5647;DHT22;2845;48.626;9.362;2023-04-24T16:30:51;13.70;83.40
5647;DHT22;2845;48.626;9.362;2023-04-24T16:33:25;16.80;84.60
5647;DHT22;2845;48.626;9.362;2023-04-24T16:36:00;14.00;83.20
5647;DHT22;2845;48.626;9.362;2023-04-24T16:38:35;14.50;83.10
5647;DHT22;2845;48.626;9.362;2023-04-24T16:41:09;16.70;84.10
5647;DHT22;2845;48.626;9.362;2023-04-24T16:46:19;16.60;84.50
5647;DHT22;2845;48.626;9.362;2023-04-24T16:48:54;15.10;83.90
5647;DHT22;2845;48.626;9.362;2023-04-24T16:51:28;13.70;83.70
5647;DHT22;2845;48.626;9.362;2023-04-24T16:54:03;15.20;84.80
5647;DHT22;2845;48.626;9.362;2023-04-24T16:56:37;15.50;84.60
5647;DHT22;2845;48.626;9.362;2023-04-24T16:59:14;13.60;84.40
5647;DHT22;2845;48.626;9.362;2023-04-24T17:01:51;13.90;86.20
5647;DHT22;2845;48.626;9.362;2023-04-24T17:04:30;13.50;84.60
5647;DHT22;2845;48.626;9.362;2023-04-24T17:07:07;13.50;85.40
5647;DHT22;2845;48.626;9.362;2023-04-24T17:09:42;13.40;85.30
5647;DHT22;2845;48.626;9.362;2023-04-24T17:12:16;13.30;85.40
5647;DHT22;2845;48.626;9.362;2023-04-24T17:14:52;13.20;85.80
5647;DHT22;2845;48.626;9.362;2023-04-24T17:17:29;14.80;86.90